Leadville, CO

4:34 AM MST op 27 november 2014 (GMT -0700)
Lake County | Change Station
CLOSE
Current Station
Luchthaven
Location: Leadville,
Geometrische hoogte: 9928 ft
Nabije weerstations

Hoogte 9928 ft 39.23 °N, 106.32 °W | Updated 41 minutes ago

Helder
Helder
21 °F
Voelt als 8 °F
N
14
Wind Variabel Wind van NO

Vandaag
Hoog -- | Laag -- °F
--% Kans op neerslag
Gisteren
Hoog -- | Laag -- °F
Precip. -- inches
7:01 AM 4:43 PM
Wassende halvemaan, 28% visible
Druk 30.35 inches
Zicht 10.0 mijlen
Wolken Helder
Gevoelstemperatuur 8 °F
Dauwpunt 11 °F
Vochtigheid 65%
Neerslag 0.00 inches
Dikte sneeuw Niet beschikbaar.
UV 0 van de 12
Pollen .10 van de 12
Luchtkwaliteit Niet beschikbaar.
Flu Activity Niet beschikbaar.
METAR KLXV 271053Z AUTO 05012KT 10SM CLR M06/M12 A3046 RMK AO2 SLP278 T10611117

More Conditions Fewer Conditions

Druk 30.35 inches
Zicht 10.0 mijlen
Wolken Helder
Gevoelstemperatuur 8 °F
Dauwpunt 11 °F
Vochtigheid 65%
Neerslag 0.00 inches
Dikte sneeuw Niet beschikbaar.
UV 0 van de 12
Pollen .10 van de 12
Luchtkwaliteit Niet beschikbaar.
Flu Activity Niet beschikbaar.
METAR KLXV 271053Z AUTO 05012KT 10SM CLR M06/M12 A3046 RMK AO2 SLP278 T10611117

More Conditions Fewer Conditions

10-Day Weather Forecast

Almanac

Astronomie

Nov. 27, 2014 Opkomst Ondergang
Werkelijke tijd
Burgerlijke schemering
Nautische schemering
Astronomische schemering
Maan
Golflengte van het zichtbare licht
Daglengte
Tomorrow will be .
, % of the Moon is Illuminated

Extremen vandaag

State Highs State Lows

Community

WunderPhotos

Upload Photos

1,773,970 foto’s ge-upload!

WunderBlogs® & News

Nearby

Luchtkwaliteit

  Luchtkwaliteit LK-index Verontreinigende stof
Not available.

Dikte sneeuw

Station Depth Geometrische hoogte

Aardbevingen

Stad Distance Mag. Time & Date
Minimum magnitude displayed is 2.5.

Watertemperatuur langs de kust

Plaats Temperatuur

Nabije weerstations